Time;durP1;ratioP1;P1;durP2;ratioP2;P2;SDS_P1;SDS_P2;PMS_P1;PMS_P2;Temp;Humidity;BMP_temperature;BMP_pressure;BME280_temperature;BME280_humidity;BME280_pressure;Samples;Min_cycle;Max_cycle;Signal;HPM_P1;HPM_P2
2022/02/24 00:00:51;;;;;;;;;7.25;7.25;;;;;13.86;52.13;101329.59;2060821;28;47747;-61
2022/02/24 00:01:51;;;;;;;;;6.00;6.00;;;;;13.86;52.28;101329.59;2052675;28;47427;-60
2022/02/24 00:02:52;;;;;;;;;8.67;7.00;;;;;13.88;52.40;101326.88;2060842;28;47858;-61
2022/02/24 00:03:52;;;;;;;;;8.67;7.00;;;;;13.87;52.26;101325.13;2069846;28;47539;-59
2022/02/24 00:04:54;;;;;;;;;7.67;7.67;;;;;13.87;52.36;101325.13;2070008;28;48142;-59
2022/02/24 00:05:56;;;;;;;;;6.50;5.25;;;;;13.87;52.40;101320.66;2071063;28;48421;-60
2022/02/24 00:06:56;;;;;;;;;10.00;8.25;;;;;13.86;52.38;101326.91;2068912;28;47344;-60
2022/02/24 00:07:59;;;;;;;;;11.33;7.67;;;;;13.86;52.40;101318.91;2077305;28;46730;-60
2022/02/24 00:08:59;;;;;;;;;5.25;5.25;;;;;13.86;52.40;101313.56;2073215;28;47491;-59
2022/02/24 00:10:00;;;;;;;;;7.67;7.00;;;;;13.86;52.56;101307.38;2070469;28;47349;-61
2022/02/24 00:11:00;;;;;;;;;6.00;5.00;;;;;13.86;52.42;101304.69;2068860;28;47863;-58
2022/02/24 00:12:02;;;;;;;;;9.00;9.00;;;;;13.86;52.41;101310.03;2071176;28;47517;-60
2022/02/24 00:13:03;;;;;;;;;10.75;10.00;;;;;13.87;52.80;101314.44;2068890;28;47911;-59
2022/02/24 00:14:03;;;;;;;;;10.00;9.00;;;;;13.86;52.82;101318.03;2069323;28;47548;-60
2022/02/24 00:15:06;;;;;;;;;9.00;9.00;;;;;13.86;52.66;101321.56;2071036;28;47871;-60
2022/02/24 00:16:06;;;;;;;;;9.00;9.00;;;;;13.84;52.78;101316.25;2071104;28;47338;-61
2022/02/24 00:17:07;;;;;;;;;10.00;9.00;;;;;13.84;52.76;101318.91;2066417;28;47693;-60
2022/02/24 00:18:08;;;;;;;;;9.75;9.75;;;;;13.84;53.10;101316.25;2071125;28;47920;-59
2022/02/24 00:19:08;;;;;;;;;8.00;8.00;;;;;13.85;52.92;101317.16;2069089;28;47807;-59
2022/02/24 00:20:10;;;;;;;;;11.67;10.67;;;;;13.85;52.84;101309.16;2070815;28;47279;-61
2022/02/24 00:21:10;;;;;;;;;7.00;7.00;;;;;13.84;53.07;101310.91;2068952;28;48062;-61
2022/02/24 00:22:11;;;;;;;;;10.67;9.33;;;;;13.84;53.04;101296.69;2071129;28;47775;-61
2022/02/24 00:23:11;;;;;;;;;10.33;10.33;;;;;13.84;53.27;101305.59;2069057;28;47680;-59
2022/02/24 00:24:11;;;;;;;;;9.00;9.00;;;;;13.84;53.23;101310.03;2071376;28;47847;-61
2022/02/24 00:25:12;;;;;;;;;10.33;10.00;;;;;13.84;53.33;101305.59;2065907;28;48011;-61
2022/02/24 00:26:12;;;;;;;;;10.33;9.00;;;;;13.84;53.10;101304.72;2070151;28;47499;-60
2022/02/24 00:27:13;;;;;;;;;11.33;11.00;;;;;13.85;53.23;101306.50;2069317;28;47689;-60
2022/02/24 00:28:13;;;;;;;;;4.00;3.00;;;;;13.86;53.20;101312.69;2070623;28;47934;-60
2022/02/24 00:29:13;;;;;;;;;10.67;9.00;;;;;13.85;53.19;101309.16;2068495;28;47804;-61
2022/02/24 00:30:14;;;;;;;;;11.33;9.00;;;;;13.86;53.03;101302.91;2071129;28;47836;-60
2022/02/24 00:31:14;;;;;;;;;10.67;10.33;;;;;13.84;53.10;101297.56;2068885;28;47662;-61
2022/02/24 00:32:15;;;;;;;;;11.67;11.67;;;;;13.85;53.25;101293.16;2070784;28;47298;-60
2022/02/24 00:33:15;;;;;;;;;8.33;8.33;;;;;13.84;53.06;101296.69;2068225;28;47630;-60
2022/02/24 00:34:15;;;;;;;;;11.00;11.00;;;;;13.85;53.44;101295.81;2071064;28;48093;-61
2022/02/24 00:35:16;;;;;;;;;11.33;11.33;;;;;13.84;53.39;101297.56;2068811;28;47593;-62
2022/02/24 00:36:16;;;;;;;;;10.33;10.33;;;;;13.84;53.42;101300.25;2071018;28;47549;-61
2022/02/24 00:37:17;;;;;;;;;9.67;8.33;;;;;13.83;53.41;101298.50;2067909;28;49999;-61
2022/02/24 00:38:18;;;;;;;;;11.33;10.33;;;;;13.84;53.49;101294.03;2063575;28;47724;-59
2022/02/24 00:39:20;;;;;;;;;13.00;11.33;;;;;13.85;53.49;101295.81;2061116;28;47936;-61
2022/02/24 00:40:20;;;;;;;;;14.00;12.00;;;;;13.84;53.25;101288.69;2061730;28;47992;-61
2022/02/24 00:41:21;;;;;;;;;12.00;12.00;;;;;13.84;53.59;101288.69;2058271;28;47443;-59
2022/02/24 00:42:21;;;;;;;;;11.00;11.00;;;;;13.82;53.45;101286.06;2061963;28;47686;-59
2022/02/24 00:43:22;;;;;;;;;14.67;11.33;;;;;13.82;53.47;101285.19;2060963;28;47711;-60
2022/02/24 00:44:22;;;;;;;;;12.00;10.67;;;;;13.80;53.81;101284.38;2062003;28;47983;-60
2022/02/24 00:45:23;;;;;;;;;12.33;12.33;;;;;13.80;53.48;101287.91;2060589;28;47961;-60
2022/02/24 00:46:23;;;;;;;;;9.33;9.00;;;;;13.80;53.82;101284.38;2061863;28;47596;-60
2022/02/24 00:47:24;;;;;;;;;14.00;12.00;;;;;13.81;53.81;101284.31;2062214;28;47187;-61
2022/02/24 00:48:24;;;;;;;;;13.50;12.50;;;;;13.81;53.80;101286.13;2061737;28;48032;-59
2022/02/24 00:49:25;;;;;;;;;11.67;11.67;;;;;13.81;54.04;101286.13;2061196;28;47510;-60
2022/02/24 00:50:25;;;;;;;;;11.00;11.00;;;;;13.81;53.86;101278.13;2061051;28;47575;-59
2022/02/24 00:51:26;;;;;;;;;15.33;12.33;;;;;13.80;53.86;101277.25;2061861;28;47463;-61
2022/02/24 00:52:26;;;;;;;;;12.67;12.00;;;;;13.80;53.92;101274.56;2061436;28;47999;-61
2022/02/24 00:53:26;;;;;;;;;11.33;11.33;;;;;13.81;53.96;101275.44;2061099;28;48052;-61
2022/02/24 00:54:27;;;;;;;;;10.33;10.33;;;;;13.81;54.22;101264.78;2061339;28;47864;-61
2022/02/24 00:55:28;;;;;;;;;11.00;9.67;;;;;13.82;54.17;101271.88;2058197;28;47463;-61
2022/02/24 00:56:28;;;;;;;;;14.75;13.75;;;;;13.82;53.91;101263.84;2060613;28;47670;-61
2022/02/24 00:57:29;;;;;;;;;11.33;9.00;;;;;13.80;54.03;101263.91;2062202;28;47511;-61
2022/02/24 00:58:29;;;;;;;;;9.67;9.67;;;;;13.82;53.94;101267.41;2060924;28;47674;-59
2022/02/24 00:59:29;;;;;;;;;9.67;9.67;;;;;13.82;53.96;101261.19;2062728;28;47488;-61
2022/02/24 01:00:30;;;;;;;;;11.33;11.00;;;;;13.83;54.42;101263.81;2061560;28;47724;-60
2022/02/24 01:01:30;;;;;;;;;12.00;11.67;;;;;13.84;53.93;101267.34;2059134;28;47582;-60
2022/02/24 01:02:31;;;;;;;;;11.33;11.33;;;;;13.83;53.88;101262.94;2060554;28;47514;-59
2022/02/24 01:03:31;;;;;;;;;16.50;13.25;;;;;13.83;54.10;101266.47;2061513;28;47662;-61
2022/02/24 01:04:32;;;;;;;;;12.00;11.00;;;;;13.83;54.27;101263.81;2044103;28;47609;-59
2022/02/24 01:05:32;;;;;;;;;11.33;11.33;;;;;13.85;54.19;101261.13;2044055;28;47336;-60
2022/02/24 01:06:32;;;;;;;;;13.33;12.33;;;;;13.84;54.02;101256.69;2060905;28;47567;-60
2022/02/24 01:07:33;;;;;;;;;16.00;12.33;;;;;13.84;54.40;101251.34;2062478;28;47466;-60
2022/02/24 01:08:33;;;;;;;;;12.33;11.33;;;;;13.84;54.33;101254.88;2061162;28;46567;-60
2022/02/24 01:09:34;;;;;;;;;11.00;10.33;;;;;13.84;54.39;101246.88;2044442;28;47269;-60
2022/02/24 01:10:34;;;;;;;;;11.67;11.00;;;;;13.84;54.06;101249.56;2044179;28;47699;-60
2022/02/24 01:11:35;;;;;;;;;9.67;9.67;;;;;13.84;54.23;101246.00;2061675;28;48318;-60
2022/02/24 01:12:36;;;;;;;;;12.67;10.00;;;;;13.83;54.11;101250.47;2060475;28;47867;-60
2022/02/24 01:13:36;;;;;;;;;9.25;9.25;;;;;13.83;54.08;101249.59;2061244;28;47646;-59
2022/02/24 01:14:37;;;;;;;;;9.00;9.00;;;;;13.81;54.04;101249.66;2042923;28;47700;-59
2022/02/24 01:15:38;;;;;;;;;9.00;8.00;;;;;13.81;54.13;101248.78;2045533;28;47688;-60
2022/02/24 01:16:39;;;;;;;;;8.00;7.75;;;;;13.81;54.27;101246.97;2061784;28;47221;-60
2022/02/24 01:17:43;;;;;;;;;7.67;6.67;;;;;13.82;54.13;101247.84;2061758;28;47929;-61
2022/02/24 01:18:43;;;;;;;;;9.50;7.75;;;;;13.80;54.36;101241.69;2060470;28;48334;-60
2022/02/24 01:19:44;;;;;;;;;7.00;7.00;;;;;13.79;54.18;101240.81;2058948;28;47518;-59
2022/02/24 01:20:44;;;;;;;;;8.67;8.67;;;;;13.79;54.04;101230.13;2059285;28;47565;-59
2022/02/24 01:21:45;;;;;;;;;9.67;8.00;;;;;13.80;54.18;101236.34;2062724;28;47428;-61
2022/02/24 01:22:45;;;;;;;;;7.00;7.00;;;;;13.79;54.10;101234.59;2059243;28;47342;-61
2022/02/24 01:23:46;;;;;;;;;8.33;7.67;;;;;13.78;54.00;101227.53;2061026;28;47744;-61
2022/02/24 01:24:46;;;;;;;;;10.33;8.67;;;;;13.78;54.34;101227.53;2060593;28;47353;-61
2022/02/24 01:25:46;;;;;;;;;12.00;9.00;;;;;13.78;54.08;101227.53;2061147;28;48020;-61
2022/02/24 01:26:47;;;;;;;;;10.33;7.00;;;;;13.78;54.33;101219.50;2061734;28;47841;-60
2022/02/24 01:27:48;;;;;;;;;6.00;6.00;;;;;13.79;54.15;101234.59;2063501;28;47602;-61
2022/02/24 01:28:48;;;;;;;;;8.33;6.67;;;;;13.78;54.29;101220.38;2043114;28;47367;-61
2022/02/24 01:29:49;;;;;;;;;8.00;6.67;;;;;13.78;54.37;101227.53;2045399;28;47893;-62
2022/02/24 01:30:49;;;;;;;;;8.33;7.00;;;;;13.79;54.32;101234.59;2060396;28;47667;-60
2022/02/24 01:31:50;;;;;;;;;7.00;7.00;;;;;13.78;54.06;101222.19;2062335;28;47624;-60
2022/02/24 01:32:50;;;;;;;;;9.33;7.67;;;;;13.76;54.01;101219.56;2060709;28;47747;-60
2022/02/24 01:33:50;;;;;;;;;9.67;6.33;;;;;13.76;53.94;101210.69;2061449;28;48032;-61
2022/02/24 01:34:58;;;;;;;;;6.00;6.00;;;;;13.76;53.99;101222.22;2060556;28;46133;-59
2022/02/24 01:35:58;;;;;;;;;7.00;6.00;;;;;13.74;53.95;101218.72;2053217;28;48262;-60
2022/02/24 01:37:00;;;;;;;;;7.00;6.33;;;;;13.72;53.94;101217.91;2052091;28;47484;-60
2022/02/24 01:38:00;;;;;;;;;11.00;7.50;;;;;13.72;54.10;101219.66;2063811;28;47633;-59
2022/02/24 01:39:01;;;;;;;;;7.67;6.67;;;;;13.71;54.22;101215.25;2061011;28;47664;-60
2022/02/24 01:40:03;;;;;;;;;6.67;6.67;;;;;13.69;54.29;101215.28;2063644;28;48090;-59
2022/02/24 01:41:04;;;;;;;;;7.00;6.50;;;;;13.70;53.99;101218.84;2051740;28;48064;-58
2022/02/24 01:42:04;;;;;;;;;9.33;8.33;;;;;13.70;54.10;101216.16;2055182;28;47891;-61
2022/02/24 01:43:05;;;;;;;;;6.00;6.00;;;;;13.69;54.09;101206.41;2043724;28;47629;-58
2022/02/24 01:44:12;;;;;;;;;6.67;5.33;;;;;13.69;54.31;101209.97;2046610;28;47335;-59
2022/02/24 01:45:13;;;;;;;;;7.75;6.25;;;;;13.70;54.31;101213.50;2061574;28;47231;-60
2022/02/24 01:46:15;;;;;;;;;8.00;7.75;;;;;13.69;54.29;101211.75;2063766;28;47757;-60
2022/02/24 01:47:16;;;;;;;;;7.25;7.00;;;;;13.69;54.24;101207.28;2059223;28;47704;-60
2022/02/24 01:48:17;;;;;;;;;8.25;7.25;;;;;13.69;54.29;101209.97;2063904;28;48330;-59
2022/02/24 01:49:20;;;;;;;;;7.00;7.00;;;;;13.70;54.17;101205.50;2061111;28;47643;-59
2022/02/24 01:50:21;;;;;;;;;6.25;6.00;;;;;13.70;54.28;101205.50;2062913;28;47956;-58
2022/02/24 01:51:22;;;;;;;;;7.33;7.00;;;;;13.69;54.25;101196.63;2061616;28;47630;-58
2022/02/24 01:52:23;;;;;;;;;6.25;6.25;;;;;13.69;54.46;101201.97;2062900;28;47649;-59
2022/02/24 01:53:23;;;;;;;;;6.00;6.00;;;;;13.69;54.36;101201.97;2059227;28;47703;-59
2022/02/24 01:54:23;;;;;;;;;6.00;6.00;;;;;13.68;54.23;101202.88;2062958;28;47762;-59
2022/02/24 01:55:24;;;;;;;;;5.33;5.33;;;;;13.67;54.24;101201.13;2059670;28;48318;-61
2022/02/24 01:56:25;;;;;;;;;7.00;6.00;;;;;13.67;54.25;101208.25;2062787;28;47853;-60
2022/02/24 01:57:25;;;;;;;;;6.00;5.25;;;;;13.65;54.44;101208.28;2062473;28;47502;-59
2022/02/24 01:58:26;;;;;;;;;7.00;7.00;;;;;13.63;54.39;101207.47;2062694;28;47580;-60
2022/02/24 01:59:27;;;;;;;;;6.00;6.00;;;;;13.62;54.36;101207.50;2059141;28;48153;-60
2022/02/24 02:00:27;;;;;;;;;6.00;6.00;;;;;13.59;54.43;101213.78;2062295;28;47556;-60
2022/02/24 02:01:28;;;;;;;;;6.00;5.00;;;;;13.58;54.66;101205.81;2062343;28;47801;-60
2022/02/24 02:02:28;;;;;;;;;6.00;6.00;;;;;13.56;54.61;101208.53;2062456;28;47341;-61
2022/02/24 02:03:29;;;;;;;;;5.67;5.67;;;;;13.53;54.64;101205.94;2062580;28;47621;-60
2022/02/24 02:04:29;;;;;;;;;7.33;6.00;;;;;13.51;54.50;101206.00;2062103;28;47426;-59
2022/02/24 02:05:30;;;;;;;;;8.00;7.00;;;;;13.49;54.60;101210.50;2063346;28;47373;-60
2022/02/24 02:06:30;;;;;;;;;6.67;6.67;;;;;13.47;54.35;101211.47;2061408;28;47158;-58
2022/02/24 02:07:32;;;;;;;;;6.33;6.00;;;;;13.45;54.80;101210.59;2063670;28;48056;-59
2022/02/24 02:08:33;;;;;;;;;6.50;6.25;;;;;13.43;54.82;101212.44;2063724;28;47510;-60
2022/02/24 02:09:35;;;;;;;;;8.50;7.00;;;;;13.42;55.00;101205.34;2063978;28;47934;-60
2022/02/24 02:10:35;;;;;;;;;6.50;6.50;;;;;13.39;55.09;101184.09;2063819;28;48016;-59
2022/02/24 02:11:36;;;;;;;;;7.67;7.00;;;;;13.38;55.21;101183.22;2063754;28;47818;-60
2022/02/24 02:12:50;;;;;;;;;8.00;8.00;;;;;13.37;55.31;101167.28;2063934;28;47576;-60
2022/02/24 02:13:51;;;;;;;;;10.50;8.00;;;;;13.36;55.27;101160.19;2064045;28;47170;-60
2022/02/24 02:14:51;;;;;;;;;9.00;7.00;;;;;13.35;55.62;101159.34;2063812;28;47730;-60
2022/02/24 02:15:52;;;;;;;;;10.00;9.00;;;;;13.34;55.48;101149.59;2063625;28;47782;-60
2022/02/24 02:16:54;;;;;;;;;5.25;5.25;;;;;13.35;56.41;101148.66;2063845;28;47545;-60
2022/02/24 02:17:54;;;;;;;;;9.75;7.50;;;;;13.36;56.06;101154.88;2063772;28;47687;-59
2022/02/24 02:18:55;;;;;;;;;10.67;7.00;;;;;13.36;55.99;101146.88;2063787;28;47613;-59
2022/02/24 02:19:55;;;;;;;;;6.67;6.67;;;;;13.36;56.07;101153.09;2063725;28;47513;-59
2022/02/24 02:20:56;;;;;;;;;6.00;5.67;;;;;13.37;55.94;101148.63;2063667;28;47802;-58
2022/02/24 02:21:57;;;;;;;;;9.67;7.00;;;;;13.37;56.13;101153.94;2063455;28;47348;-59
2022/02/24 02:22:57;;;;;;;;;9.00;8.33;;;;;13.37;56.49;101153.94;2063908;28;48588;-59
2022/02/24 02:23:57;;;;;;;;;8.67;7.00;;;;;13.36;56.17;101157.53;2063861;28;47679;-61
2022/02/24 02:24:59;;;;;;;;;8.00;6.33;;;;;13.35;56.32;101155.78;2063916;28;47282;-60
2022/02/24 02:26:00;;;;;;;;;3.25;3.25;;;;;13.34;56.20;101157.59;2055050;28;47310;-60
2022/02/24 02:27:00;;;;;;;;;7.67;7.00;;;;;13.34;56.34;101154.91;2057664;28;48159;-60
2022/02/24 02:28:01;;;;;;;;;7.00;7.00;;;;;13.33;56.27;101150.47;2072018;28;48322;-61
2022/02/24 02:29:04;;;;;;;;;7.00;6.00;;;;;13.32;56.14;101143.38;2063558;28;46068;-60
2022/02/24 02:30:07;;;;;;;;;7.00;6.75;;;;;13.33;56.18;101144.25;2063197;28;47419;-61
2022/02/24 02:31:08;;;;;;;;;7.25;7.25;;;;;13.33;55.88;101142.47;2063940;28;48155;-60
2022/02/24 02:32:08;;;;;;;;;7.00;7.00;;;;;13.32;55.97;101139.84;2063549;28;47493;-60
2022/02/24 02:33:08;;;;;;;;;6.00;5.33;;;;;13.32;56.07;101137.19;2061078;28;47399;-60
2022/02/24 02:34:14;;;;;;;;;6.00;6.00;;;;;13.32;56.12;101142.50;2063598;28;47626;-59
2022/02/24 02:35:15;;;;;;;;;7.50;7.50;;;;;13.34;56.09;101138.00;2063786;28;47421;-59
2022/02/24 02:36:16;;;;;;;;;7.33;7.33;;;;;13.32;56.04;101138.06;2063546;28;47904;-59
2022/02/24 02:37:16;;;;;;;;;7.33;5.67;;;;;13.32;55.99;101137.19;2062649;28;47710;-60
2022/02/24 02:38:17;;;;;;;;;7.67;7.00;;;;;13.33;55.92;101133.59;2067047;28;46381;-60
2022/02/24 02:39:17;;;;;;;;;6.00;6.00;;;;;13.32;55.94;101132.72;2054329;28;47353;-59
2022/02/24 02:40:17;;;;;;;;;10.67;8.00;;;;;13.32;56.08;101131.84;2054430;28;47844;-60
2022/02/24 02:41:18;;;;;;;;;10.00;6.00;;;;;13.31;56.04;101132.78;2071181;28;47854;-61
2022/02/24 02:42:18;;;;;;;;;8.00;7.33;;;;;13.31;56.21;101138.97;2071922;28;47743;-60
2022/02/24 02:43:19;;;;;;;;;9.33;7.67;;;;;13.29;56.18;101135.47;2071832;28;47772;-61
2022/02/24 02:44:19;;;;;;;;;7.00;7.00;;;;;13.29;56.12;101134.59;2071718;28;47267;-59
2022/02/24 02:45:20;;;;;;;;;8.00;7.00;;;;;13.29;56.21;101137.28;2071940;28;47571;-62
2022/02/24 02:46:21;;;;;;;;;8.50;8.00;;;;;13.29;56.14;101137.28;2071732;28;47750;-59
2022/02/24 02:47:21;;;;;;;;;10.33;8.33;;;;;13.27;56.24;101134.66;2071771;28;47486;-61
2022/02/24 02:48:21;;;;;;;;;6.33;6.33;;;;;13.28;56.13;101136.41;2071384;28;47986;-61
2022/02/24 02:49:22;;;;;;;;;5.33;4.00;;;;;13.28;56.21;101138.19;2071285;28;47318;-61
2022/02/24 02:50:22;;;;;;;;;11.33;9.00;;;;;13.28;56.11;101135.53;2071719;28;47405;-61
2022/02/24 02:51:23;;;;;;;;;7.67;7.00;;;;;13.27;56.22;101136.44;2071523;28;48387;-60
2022/02/24 02:52:23;;;;;;;;;6.33;5.33;;;;;13.26;56.05;101127.56;2071715;28;47518;-61
2022/02/24 02:53:23;;;;;;;;;8.00;6.67;;;;;13.25;56.09;101125.81;2071505;28;47889;-60
2022/02/24 02:54:24;;;;;;;;;8.67;8.00;;;;;13.25;56.05;101128.50;2071578;28;47915;-60
2022/02/24 02:55:24;;;;;;;;;8.00;8.00;;;;;13.24;56.13;101132.06;2071240;28;47189;-60
2022/02/24 02:56:25;;;;;;;;;7.00;7.00;;;;;13.24;55.75;101126.75;2053780;28;47560;-61
2022/02/24 02:57:25;;;;;;;;;5.00;5.00;;;;;13.23;55.82;101125.88;2062749;28;48030;-61
2022/02/24 02:58:26;;;;;;;;;8.67;7.33;;;;;13.22;55.62;101124.13;2071479;28;47669;-59
2022/02/24 02:59:27;;;;;;;;;7.00;6.33;;;;;13.21;55.53;101122.38;2071621;28;47644;-60
2022/02/24 03:00:27;;;;;;;;;6.25;6.00;;;;;13.22;55.54;101117.91;2071773;28;47793;-61
2022/02/24 03:01:27;;;;;;;;;8.00;8.00;;;;;13.22;55.57;101117.91;2071463;28;47347;-58
2022/02/24 03:02:28;;;;;;;;;6.00;6.00;;;;;13.20;55.59;101109.94;2071959;28;47720;-60
2022/02/24 03:03:28;;;;;;;;;7.33;7.33;;;;;13.20;55.47;101111.72;2071494;28;47626;-60
2022/02/24 03:04:29;;;;;;;;;5.33;5.33;;;;;13.19;55.19;101112.66;2071746;28;47155;-59
2022/02/24 03:05:29;;;;;;;;;5.00;5.00;;;;;13.18;55.10;101116.19;2071788;28;47436;-61
2022/02/24 03:06:30;;;;;;;;;5.67;5.67;;;;;13.17;54.86;101103.78;2071771;28;48099;-61
2022/02/24 03:07:31;;;;;;;;;7.00;6.00;;;;;13.17;54.88;101109.13;2071776;28;47681;-61
2022/02/24 03:08:31;;;;;;;;;5.75;5.25;;;;;13.15;54.81;101102.97;2071626;28;47555;-60
2022/02/24 03:09:32;;;;;;;;;7.33;7.33;;;;;13.14;54.75;101103.88;2071454;28;47945;-60
2022/02/24 03:10:32;;;;;;;;;5.00;5.00;;;;;13.14;54.68;101109.19;2071679;28;47663;-60
2022/02/24 03:11:34;;;;;;;;;6.00;6.00;;;;;13.12;54.66;101109.25;2071250;28;47624;-61
2022/02/24 03:12:36;;;;;;;;;7.25;6.75;;;;;13.12;54.68;101103.91;2071600;28;47520;-60
2022/02/24 03:13:37;;;;;;;;;7.25;5.25;;;;;13.10;54.50;101105.75;2071470;28;47895;-60
2022/02/24 03:14:38;;;;;;;;;4.00;4.00;;;;;13.10;54.70;101104.88;2071594;28;48143;-60
2022/02/24 03:15:38;;;;;;;;;6.00;6.00;;;;;13.09;54.70;101105.78;2071291;28;47601;-60
2022/02/24 03:16:39;;;;;;;;;5.00;5.00;;;;;13.08;54.42;101110.22;2071666;28;47777;-60
2022/02/24 03:17:43;;;;;;;;;7.00;7.00;;;;;13.07;54.06;101111.13;2071626;28;47747;-60
2022/02/24 03:18:44;;;;;;;;;6.25;6.25;;;;;13.07;54.55;101102.28;2071784;28;47682;-60
2022/02/24 03:19:44;;;;;;;;;5.00;5.00;;;;;13.06;54.27;101106.72;2071112;28;48029;-60
2022/02/24 03:20:45;;;;;;;;;6.00;5.00;;;;;13.05;54.46;101093.44;2071743;28;47384;-59
2022/02/24 03:21:45;;;;;;;;;7.00;6.00;;;;;13.05;54.50;101096.09;2071333;28;47339;-59
2022/02/24 03:22:45;;;;;;;;;6.00;6.00;;;;;13.05;54.59;101085.44;2071763;28;47703;-60
2022/02/24 03:23:46;;;;;;;;;5.67;5.00;;;;;13.05;54.45;101080.13;2062052;28;47522;-61
2022/02/24 03:24:46;;;;;;;;;6.00;6.00;;;;;13.05;54.43;101088.13;2062146;28;47837;-63
2022/02/24 03:25:47;;;;;;;;;7.67;7.33;;;;;13.05;54.42;101088.13;2062092;28;47880;-60
2022/02/24 03:26:48;;;;;;;;;6.00;6.00;;;;;13.05;54.47;101089.00;2063054;28;47448;-59
2022/02/24 03:27:48;;;;;;;;;7.25;7.00;;;;;13.04;54.37;101091.69;2077542;28;47375;-61
2022/02/24 03:28:49;;;;;;;;;6.00;5.67;;;;;13.04;54.18;101089.91;2071595;28;47332;-61
2022/02/24 03:29:49;;;;;;;;;6.33;6.33;;;;;13.03;54.33;101093.50;2071509;28;47490;-59
2022/02/24 03:30:50;;;;;;;;;6.00;5.00;;;;;13.03;54.24;101098.81;2071503;28;47940;-60
2022/02/24 03:31:50;;;;;;;;;7.00;5.67;;;;;13.02;54.33;101091.75;2071442;28;47558;-59
2022/02/24 03:32:51;;;;;;;;;4.67;3.67;;;;;13.01;54.26;101087.31;2071390;28;47812;-61
2022/02/24 03:33:51;;;;;;;;;6.00;5.33;;;;;13.02;54.27;101086.41;2071416;28;47624;-60
2022/02/24 03:34:52;;;;;;;;;3.00;3.00;;;;;13.03;54.07;101081.97;2071353;28;47690;-59
2022/02/24 03:35:52;;;;;;;;;9.00;6.67;;;;;13.03;54.46;101077.50;2071431;28;47724;-60
2022/02/24 03:36:52;;;;;;;;;7.00;6.00;;;;;13.03;54.41;101084.63;2071536;28;47649;-61
2022/02/24 03:37:53;;;;;;;;;6.33;6.33;;;;;13.03;54.38;101084.63;2071556;28;47685;-61
2022/02/24 03:38:54;;;;;;;;;6.67;5.00;;;;;13.03;54.42;101081.97;2071162;28;47662;-60
2022/02/24 03:39:54;;;;;;;;;5.00;5.00;;;;;13.04;54.17;101078.38;2071474;28;47233;-61
2022/02/24 03:40:54;;;;;;;;;4.00;4.00;;;;;13.04;54.22;101078.38;2071384;28;47513;-61
2022/02/24 03:41:55;;;;;;;;;6.00;5.00;;;;;13.05;54.37;101082.78;2071502;28;47637;-60
2022/02/24 03:42:55;;;;;;;;;6.67;6.33;;;;;13.04;54.24;101076.59;2071433;28;46532;-60
2022/02/24 03:43:56;;;;;;;;;4.00;4.00;;;;;13.05;54.41;101078.34;2071540;28;47321;-60
2022/02/24 03:44:56;;;;;;;;;7.00;5.00;;;;;13.05;54.25;101074.78;2071480;28;47134;-61
2022/02/24 03:45:57;;;;;;;;;6.00;6.00;;;;;13.05;54.21;101072.13;2071399;28;47542;-60
2022/02/24 03:46:58;;;;;;;;;7.00;7.00;;;;;13.06;54.17;101069.41;2071359;28;47487;-60
2022/02/24 03:47:58;;;;;;;;;5.50;5.25;;;;;13.06;54.13;101073.88;2071680;28;47514;-58
2022/02/24 03:48:59;;;;;;;;;6.00;6.00;;;;;13.06;54.30;101072.09;2071573;28;47685;-60
2022/02/24 03:50:00;;;;;;;;;7.33;5.67;;;;;13.04;54.14;101065.94;2071483;28;47746;-59
2022/02/24 03:51:01;;;;;;;;;6.50;6.50;;;;;13.06;54.11;101068.56;2071391;28;47756;-60
2022/02/24 03:52:01;;;;;;;;;3.33;2.67;;;;;13.06;53.87;101063.22;2071591;28;47436;-61
2022/02/24 03:53:02;;;;;;;;;4.00;4.00;;;;;13.05;53.71;101064.13;2070041;28;47223;-62
2022/02/24 03:54:02;;;;;;;;;6.67;5.67;;;;;13.05;53.78;101072.13;2070247;28;47487;-61
2022/02/24 03:55:03;;;;;;;;;3.00;3.00;;;;;13.05;53.82;101069.47;2071460;28;47993;-61
2022/02/24 03:56:04;;;;;;;;;6.50;6.50;;;;;13.05;53.94;101067.69;2071235;28;47528;-59
2022/02/24 03:57:04;;;;;;;;;6.67;5.00;;;;;13.05;53.89;101061.47;2071399;28;48012;-60
2022/02/24 03:58:05;;;;;;;;;5.00;5.00;;;;;13.05;53.86;101067.69;2071606;28;47593;-61
2022/02/24 03:59:05;;;;;;;;;5.33;5.33;;;;;13.05;53.98;101072.13;2071206;28;47740;-60
2022/02/24 04:00:08;;;;;;;;;6.67;6.67;;;;;13.04;53.90;101065.94;2071368;28;48087;-61
2022/02/24 04:01:08;;;;;;;;;7.50;4.50;;;;;13.05;53.90;101058.81;2071180;28;47757;-61
2022/02/24 04:02:09;;;;;;;;;5.33;5.00;;;;;13.04;53.66;101054.41;2071283;28;47816;-61
2022/02/24 04:03:09;;;;;;;;;7.67;5.00;;;;;13.03;53.73;101040.19;2071371;28;47932;-61
2022/02/24 04:04:12;;;;;;;;;6.33;5.00;;;;;13.02;53.67;101026.94;2071030;28;46560;-60
2022/02/24 04:05:15;;;;;;;;;5.50;4.00;;;;;13.01;53.75;101042.03;2071182;28;47947;-59
2022/02/24 04:06:15;;;;;;;;;7.25;5.00;;;;;13.00;53.96;101026.97;2071103;28;47689;-60
2022/02/24 04:07:16;;;;;;;;;7.00;5.00;;;;;13.00;53.85;101034.09;2071350;28;47414;-60
2022/02/24 04:08:16;;;;;;;;;4.00;4.00;;;;;13.00;53.75;101026.09;2071478;28;47316;-60
2022/02/24 04:09:17;;;;;;;;;4.33;3.00;;;;;13.01;53.95;101041.16;2071147;28;47100;-60
2022/02/24 04:10:17;;;;;;;;;5.00;5.00;;;;;12.99;53.84;101035.88;2071150;28;47288;-59
2022/02/24 04:11:18;;;;;;;;;5.00;5.00;;;;;13.00;54.06;101037.63;2071201;28;46150;-59
2022/02/24 04:12:18;;;;;;;;;5.00;5.00;;;;;13.01;54.06;101035.84;2073824;28;47781;-60
2022/02/24 04:13:19;;;;;;;;;8.00;6.33;;;;;12.99;53.76;101041.22;2076377;28;47771;-60
2022/02/24 04:14:19;;;;;;;;;3.00;3.00;;;;;12.98;53.72;101034.13;2071023;28;47373;-60
2022/02/24 04:15:20;;;;;;;;;3.00;0.00;;;;;12.96;53.81;101039.50;2071379;28;47663;-60
2022/02/24 04:16:20;;;;;;;;;6.33;4.00;;;;;12.95;53.72;101032.41;2071360;28;48115;-60
2022/02/24 04:17:21;;;;;;;;;3.67;3.67;;;;;12.94;53.86;101033.31;2071136;28;47527;-61
2022/02/24 04:18:21;;;;;;;;;5.67;4.00;;;;;12.95;53.83;101032.41;2071342;28;47798;-61
2022/02/24 04:19:24;;;;;;;;;4.00;2.67;;;;;12.95;54.21;101034.19;2071270;28;48098;-60
2022/02/24 04:20:25;;;;;;;;;3.50;3.00;;;;;12.94;54.06;101030.66;2064724;28;47090;-59
2022/02/24 04:21:25;;;;;;;;;4.00;4.00;;;;;12.95;54.50;101028.88;2071447;28;45854;-60
2022/02/24 04:22:25;;;;;;;;;4.33;4.33;;;;;12.96;54.39;101025.31;2070885;28;47678;-60
2022/02/24 04:23:26;;;;;;;;;4.00;4.00;;;;;12.95;54.37;101023.53;2071483;28;47697;-58
2022/02/24 04:24:26;;;;;;;;;7.33;5.67;;;;;12.96;54.40;101026.19;2071068;28;47646;-60
2022/02/24 04:25:27;;;;;;;;;4.00;4.00;;;;;12.98;54.48;101019.94;2071413;28;47743;-60
2022/02/24 04:26:27;;;;;;;;;5.33;4.67;;;;;12.98;54.30;101025.28;2071074;28;48008;-61
2022/02/24 04:27:28;;;;;;;;;3.67;3.67;;;;;12.97;54.29;101019.06;2073418;28;47695;-61
2022/02/24 04:28:28;;;;;;;;;3.00;3.00;;;;;12.97;54.23;101027.06;2071142;28;48103;-62
2022/02/24 04:29:29;;;;;;;;;4.33;3.00;;;;;12.96;54.06;101030.66;2071244;28;47270;-60
2022/02/24 04:30:29;;;;;;;;;4.67;3.33;;;;;12.96;54.06;101022.66;2061432;28;47639;-61
2022/02/24 04:31:30;;;;;;;;;3.33;3.33;;;;;12.94;53.99;101025.31;2061878;28;47666;-61
2022/02/24 04:32:30;;;;;;;;;4.33;4.33;;;;;12.95;53.97;101029.75;2070844;28;47442;-62
2022/02/24 04:33:30;;;;;;;;;4.00;4.00;;;;;12.94;54.00;101024.44;2064225;28;46531;-61
2022/02/24 04:34:31;;;;;;;;;5.33;4.00;;;;;12.93;53.96;101020.91;2071028;28;47589;-59
2022/02/24 04:35:31;;;;;;;;;6.00;5.33;;;;;12.93;53.93;101026.25;2070870;28;47556;-61
2022/02/24 04:36:32;;;;;;;;;6.67;5.00;;;;;12.94;53.95;101027.13;2071235;28;47523;-61
2022/02/24 04:37:32;;;;;;;;;5.00;4.00;;;;;12.94;53.93;101024.44;2070858;28;45755;-60
2022/02/24 04:38:33;;;;;;;;;3.67;3.67;;;;;12.94;54.01;101027.13;2069761;28;47088;-61
2022/02/24 04:39:33;;;;;;;;;5.00;5.00;;;;;12.93;53.89;101028.03;2068771;28;47615;-59
2022/02/24 04:40:34;;;;;;;;;3.33;3.33;;;;;12.93;53.86;101028.91;2069894;28;48110;-61
2022/02/24 04:41:34;;;;;;;;;7.00;6.00;;;;;12.94;53.95;101027.13;2071184;28;47994;-60